Air Resources Laboratory banner image
Air Resources Laboratory web site National Oceanic and Atmospheric Administration (NOAA)

nj metar


K12N 170654Z AUTO 00000KT 04/03 A3003 RMK AO1 SLP173 T00440028=
KACY 170654Z 00000KT 10SM OVC047 12/09 A3005 RMK AO2 SLP177 T01220089=
KBLM 170656Z AUTO 23003KT 10SM CLR 07/05 A3006 RMK AO2 SLP183 T00720050=
KCDW 170653Z AUTO 00000KT 10SM CLR 06/04 A3004 RMK AO2 SLP177 T00560044=
KEWR 170651Z 24005KT 10SM BKN250 08/04 A3004 RMK AO2 SLP172 T00780039=
KFWN 170653Z AUTO 00000KT 10SM CLR 02/02 A3002 RMK AO2 SLP166 T00220022=
KMIV 170654Z AUTO 00000KT 10SM BKN046 OVC055 11/09 A3006 RMK AO2 SLP176
 T01060094=
KMMU 170655Z AUTO 00000KT 10SM CLR 04/04 A3003 RMK AO2=
KNEL 170700Z AUTO 00000KT 10SM CLR 07/07 A3004 RMK AO2 SLP171 T00670067 TSNO
 PNO $=
KSMQ 170653Z AUTO 00000KT 9SM CLR 03/03 A3003 RMK AO2 SLP169 T00330033 $=
KTEB 170651Z 22006KT 10SM CLR 07/04 A3002 RMK AO2 SLP167 T00720044 $=
KTTN 170653Z AUTO 23004KT 10SM CLR 07/05 A3004 RMK AO2 SLP167 T00670050=
KWRI 170656Z 00000KT 10SM CLR 08/06 A3002 RMK AO2A SLP166 T00790059 $=